sensor_id;sensor_type;location;lat;lon;timestamp;pressure;altitude;pressure_sealevel;temperature;humidity
57192;BME280;43052;52.588;13.396;2022-11-02T00:01:27;101437.63;;;7.93;82.54
57192;BME280;43052;52.588;13.396;2022-11-02T00:03:53;101449.00;;;7.98;82.54
57192;BME280;43052;52.588;13.396;2022-11-02T00:06:18;101456.69;;;7.90;82.40
57192;BME280;43052;52.588;13.396;2022-11-02T00:08:44;101441.00;;;7.86;82.78
57192;BME280;43052;52.588;13.396;2022-11-02T00:11:09;101452.34;;;7.91;82.47
57192;BME280;43052;52.588;13.396;2022-11-02T00:13:36;101433.03;;;7.78;82.90
57192;BME280;43052;52.588;13.396;2022-11-02T00:16:03;101426.03;;;7.74;82.50
57192;BME280;43052;52.588;13.396;2022-11-02T00:18:30;101443.44;;;7.76;82.49
57192;BME280;43052;52.588;13.396;2022-11-02T00:20:56;101451.41;;;7.86;82.68
57192;BME280;43052;52.588;13.396;2022-11-02T00:23:22;101450.50;;;7.85;82.64
57192;BME280;43052;52.588;13.396;2022-11-02T00:25:48;101460.91;;;7.83;82.56
57192;BME280;43052;52.588;13.396;2022-11-02T00:28:15;101455.69;;;7.82;82.61
57192;BME280;43052;52.588;13.396;2022-11-02T00:30:40;101445.13;;;7.73;82.73
57192;BME280;43052;52.588;13.396;2022-11-02T00:33:06;101447.81;;;7.77;82.45
57192;BME280;43052;52.588;13.396;2022-11-02T00:35:32;101438.91;;;7.66;82.65
57192;BME280;43052;52.588;13.396;2022-11-02T00:37:58;101443.28;;;7.67;82.58
57192;BME280;43052;52.588;13.396;2022-11-02T00:40:23;101453.84;;;7.75;82.62
57192;BME280;43052;52.588;13.396;2022-11-02T00:42:48;101442.50;;;7.71;82.78
57192;BME280;43052;52.588;13.396;2022-11-02T00:45:13;101416.22;;;7.57;82.55
57192;BME280;43052;52.588;13.396;2022-11-02T00:47:39;101452.09;;;7.74;82.44
57192;BME280;43052;52.588;13.396;2022-11-02T00:50:04;101449.44;;;7.72;82.49
57192;BME280;43052;52.588;13.396;2022-11-02T00:52:30;101441.53;;;7.66;82.68
57192;BME280;43052;52.588;13.396;2022-11-02T00:54:55;101445.94;;;7.70;82.77
57192;BME280;43052;52.588;13.396;2022-11-02T00:57:21;101451.16;;;7.70;82.64
57192;BME280;43052;52.588;13.396;2022-11-02T00:59:46;101454.63;;;7.72;82.74
57192;BME280;43052;52.588;13.396;2022-11-02T01:02:11;101448.50;;;7.68;82.82
57192;BME280;43052;52.588;13.396;2022-11-02T01:04:37;101456.28;;;7.65;82.63
57192;BME280;43052;52.588;13.396;2022-11-02T01:07:02;101457.97;;;7.62;82.77
57192;BME280;43052;52.588;13.396;2022-11-02T01:09:28;101451.84;;;7.60;82.72
57192;BME280;43052;52.588;13.396;2022-11-02T01:11:53;101432.72;;;7.59;82.87
57192;BME280;43052;52.588;13.396;2022-11-02T01:14:19;101440.63;;;7.64;83.21
57192;BME280;43052;52.588;13.396;2022-11-02T01:16:44;101430.94;;;7.57;83.18
57192;BME280;43052;52.588;13.396;2022-11-02T01:19:10;101440.63;;;7.64;83.00
57192;BME280;43052;52.588;13.396;2022-11-02T01:21:36;101430.91;;;7.53;83.17
57192;BME280;43052;52.588;13.396;2022-11-02T01:24:01;101445.81;;;7.62;83.52
57192;BME280;43052;52.588;13.396;2022-11-02T01:26:26;101453.69;;;7.67;83.29
57192;BME280;43052;52.588;13.396;2022-11-02T01:28:53;101454.53;;;7.66;83.37
57192;BME280;43052;52.588;13.396;2022-11-02T01:31:18;101429.91;;;7.47;83.00
57192;BME280;43052;52.588;13.396;2022-11-02T01:33:44;101444.81;;;7.56;83.23
57192;BME280;43052;52.588;13.396;2022-11-02T01:36:11;101455.31;;;7.60;83.37
57192;BME280;43052;52.588;13.396;2022-11-02T01:38:37;101440.44;;;7.55;83.52
57192;BME280;43052;52.588;13.396;2022-11-02T01:41:02;101431.75;;;7.52;83.37
57192;BME280;43052;52.588;13.396;2022-11-02T01:43:33;101433.56;;;7.57;83.50
57192;BME280;43052;52.588;13.396;2022-11-02T01:46:05;101438.91;;;7.64;83.28
57192;BME280;43052;52.588;13.396;2022-11-02T01:48:40;101429.34;;;7.65;83.20
57192;BME280;43052;52.588;13.396;2022-11-02T01:51:12;101431.97;;;7.65;83.43
57192;BME280;43052;52.588;13.396;2022-11-02T01:53:42;101432.03;;;7.68;83.47
57192;BME280;43052;52.588;13.396;2022-11-02T01:56:09;101416.25;;;7.59;83.64
57192;BME280;43052;52.588;13.396;2022-11-02T01:58:36;101427.59;;;7.64;83.58
57192;BME280;43052;52.588;13.396;2022-11-02T02:01:01;101416.25;;;7.59;83.74
57192;BME280;43052;52.588;13.396;2022-11-02T02:03:29;101424.13;;;7.63;83.60
57192;BME280;43052;52.588;13.396;2022-11-02T02:05:59;101416.25;;;7.60;83.96
57192;BME280;43052;52.588;13.396;2022-11-02T02:08:27;101397.09;;;7.53;84.05
57192;BME280;43052;52.588;13.396;2022-11-02T02:10:56;101414.47;;;7.58;83.75
57192;BME280;43052;52.588;13.396;2022-11-02T02:13:23;101424.06;;;7.60;83.77
57192;BME280;43052;52.588;13.396;2022-11-02T02:16:15;101423.16;;;7.58;83.80
57192;BME280;43052;52.588;13.396;2022-11-02T02:18:47;101419.63;;;7.55;83.74
57192;BME280;43052;52.588;13.396;2022-11-02T02:21:37;101412.56;;;7.47;83.72
57192;BME280;43052;52.588;13.396;2022-11-02T02:24:22;101421.28;;;7.49;83.86
57192;BME280;43052;52.588;13.396;2022-11-02T02:27:01;101412.56;;;7.46;83.39
57192;BME280;43052;52.588;13.396;2022-11-02T02:29:39;101416.06;;;7.48;83.64
57192;BME280;43052;52.588;13.396;2022-11-02T02:32:17;101418.59;;;7.45;83.57
57192;BME280;43052;52.588;13.396;2022-11-02T02:34:55;101402.84;;;7.37;83.43
57192;BME280;43052;52.588;13.396;2022-11-02T02:37:31;101409.13;;;7.48;83.56
57192;BME280;43052;52.588;13.396;2022-11-02T02:40:07;101411.81;;;7.53;83.71
57192;BME280;43052;52.588;13.396;2022-11-02T02:42:40;101404.75;;;7.47;83.77
57192;BME280;43052;52.588;13.396;2022-11-02T02:48:13;101414.47;;;7.58;83.65
57192;BME280;43052;52.588;13.396;2022-11-02T02:50:47;101403.91;;;7.48;83.60
57192;BME280;43052;52.588;13.396;2022-11-02T02:53:15;101421.44;;;7.57;83.86
57192;BME280;43052;52.588;13.396;2022-11-02T02:55:46;101392.66;;;7.48;83.91
57192;BME280;43052;52.588;13.396;2022-11-02T02:58:28;101404.91;;;7.55;83.87
57192;BME280;43052;52.588;13.396;2022-11-02T03:00:55;101411.03;;;7.57;83.87
57192;BME280;43052;52.588;13.396;2022-11-02T03:03:23;101406.69;;;7.58;83.81
57192;BME280;43052;52.588;13.396;2022-11-02T03:06:03;101399.56;;;7.47;83.81
57192;BME280;43052;52.588;13.396;2022-11-02T03:08:30;101393.59;;;7.53;84.04
57192;BME280;43052;52.588;13.396;2022-11-02T03:11:12;101399.72;;;7.57;84.03
57192;BME280;43052;52.588;13.396;2022-11-02T03:13:54;101404.13;;;7.61;83.92
57192;BME280;43052;52.588;13.396;2022-11-02T03:16:41;101405.91;;;7.62;83.89
57192;BME280;43052;52.588;13.396;2022-11-02T03:19:34;101383.16;;;7.51;83.78
57192;BME280;43052;52.588;13.396;2022-11-02T03:22:07;101404.22;;;7.65;83.89
57192;BME280;43052;52.588;13.396;2022-11-02T03:24:47;101389.38;;;7.61;83.66
57192;BME280;43052;52.588;13.396;2022-11-02T03:30:12;101405.16;;;7.72;83.60
57192;BME280;43052;52.588;13.396;2022-11-02T03:33:25;101392.97;;;7.68;83.41
57192;BME280;43052;52.588;13.396;2022-11-02T03:35:51;101389.41;;;7.63;83.66
57192;BME280;43052;52.588;13.396;2022-11-02T03:38:23;101406.06;;;7.71;83.44
57192;BME280;43052;52.588;13.396;2022-11-02T03:40:51;101405.16;;;7.72;83.67
57192;BME280;43052;52.588;13.396;2022-11-02T03:43:19;101400.84;;;7.71;83.73
57192;BME280;43052;52.588;13.396;2022-11-02T03:45:49;101401.63;;;7.67;83.68
57192;BME280;43052;52.588;13.396;2022-11-02T03:48:15;101408.69;;;7.74;83.57
57192;BME280;43052;52.588;13.396;2022-11-02T03:50:45;101400.78;;;7.69;83.68
57192;BME280;43052;52.588;13.396;2022-11-02T03:53:17;101408.69;;;7.74;83.59
57192;BME280;43052;52.588;13.396;2022-11-02T03:55:50;101401.63;;;7.68;83.43
57192;BME280;43052;52.588;13.396;2022-11-02T03:58:16;101391.13;;;7.62;83.18
57192;BME280;43052;52.588;13.396;2022-11-02T04:00:49;101396.34;;;7.64;83.48
57192;BME280;43052;52.588;13.396;2022-11-02T04:03:17;101407.75;;;7.71;83.43
57192;BME280;43052;52.588;13.396;2022-11-02T04:05:43;101406.06;;;7.71;83.23
57192;BME280;43052;52.588;13.396;2022-11-02T04:08:09;101411.28;;;7.74;83.30
57192;BME280;43052;52.588;13.396;2022-11-02T04:10:49;101406.09;;;7.74;83.49
57192;BME280;43052;52.588;13.396;2022-11-02T04:13:33;101395.69;;;7.76;83.10
57192;BME280;43052;52.588;13.396;2022-11-02T04:16:17;101380.94;;;7.76;82.96
57192;BME280;43052;52.588;13.396;2022-11-02T04:18:43;101398.56;;;7.91;82.83
57192;BME280;43052;52.588;13.396;2022-11-02T04:21:27;101395.06;;;7.91;82.92
57192;BME280;43052;52.588;13.396;2022-11-02T04:23:53;101400.19;;;7.84;82.76
57192;BME280;43052;52.588;13.396;2022-11-02T04:26:37;101387.88;;;7.76;83.15
57192;BME280;43052;52.588;13.396;2022-11-02T04:29:03;101407.16;;;7.87;82.87
57192;BME280;43052;52.588;13.396;2022-11-02T04:31:28;101399.38;;;7.89;82.98
57192;BME280;43052;52.588;13.396;2022-11-02T04:33:53;101401.94;;;7.86;82.74
57192;BME280;43052;52.588;13.396;2022-11-02T04:36:18;101376.50;;;7.69;82.93
57192;BME280;43052;52.588;13.396;2022-11-02T04:38:44;101401.03;;;7.83;82.81
57192;BME280;43052;52.588;13.396;2022-11-02T04:41:14;101410.56;;;7.83;82.98
57192;BME280;43052;52.588;13.396;2022-11-02T04:43:59;101405.38;;;7.83;83.01
57192;BME280;43052;52.588;13.396;2022-11-02T04:46:27;101409.66;;;7.81;82.90
57192;BME280;43052;52.588;13.396;2022-11-02T04:48:52;101409.69;;;7.82;82.89
57192;BME280;43052;52.588;13.396;2022-11-02T04:51:18;101417.47;;;7.79;82.72
57192;BME280;43052;52.588;13.396;2022-11-02T04:53:45;101388.63;;;7.67;82.92
57192;BME280;43052;52.588;13.396;2022-11-02T04:56:11;101406.09;;;7.74;82.81
57192;BME280;43052;52.588;13.396;2022-11-02T04:58:36;101388.53;;;7.61;82.87
57192;BME280;43052;52.588;13.396;2022-11-02T05:01:05;101405.09;;;7.67;82.92
57192;BME280;43052;52.588;13.396;2022-11-02T05:03:31;101400.78;;;7.68;82.94
57192;BME280;43052;52.588;13.396;2022-11-02T05:05:56;101384.09;;;7.57;82.81
57192;BME280;43052;52.588;13.396;2022-11-02T05:08:21;101383.31;;;7.61;82.92
57192;BME280;43052;52.588;13.396;2022-11-02T05:10:47;101392.06;;;7.66;82.71
57192;BME280;43052;52.588;13.396;2022-11-02T05:13:12;101404.31;;;7.72;82.51
57192;BME280;43052;52.588;13.396;2022-11-02T05:15:38;101379.81;;;7.60;82.52
57192;BME280;43052;52.588;13.396;2022-11-02T05:18:03;101408.59;;;7.68;82.58
57192;BME280;43052;52.588;13.396;2022-11-02T05:20:28;101403.38;;;7.68;82.86
57192;BME280;43052;52.588;13.396;2022-11-02T05:22:54;101398.25;;;7.71;82.80
57192;BME280;43052;52.588;13.396;2022-11-02T05:25:19;101406.09;;;7.74;82.26
57192;BME280;43052;52.588;13.396;2022-11-02T05:27:44;101416.56;;;7.77;82.34
57192;BME280;43052;52.588;13.396;2022-11-02T05:30:10;101410.44;;;7.75;82.23
57192;BME280;43052;52.588;13.396;2022-11-02T05:32:35;101405.28;;;7.78;82.48
57192;BME280;43052;52.588;13.396;2022-11-02T05:35:00;101404.41;;;7.78;82.32
57192;BME280;43052;52.588;13.396;2022-11-02T05:37:26;101393.97;;;7.78;82.31
57192;BME280;43052;52.588;13.396;2022-11-02T05:39:51;101410.66;;;7.89;82.29
57192;BME280;43052;52.588;13.396;2022-11-02T05:42:16;101408.19;;;7.97;82.09
57192;BME280;43052;52.588;13.396;2022-11-02T05:44:42;101381.09;;;7.84;81.99
57192;BME280;43052;52.588;13.396;2022-11-02T05:47:07;101393.34;;;7.93;81.94
57192;BME280;43052;52.588;13.396;2022-11-02T05:49:32;101409.06;;;7.97;81.73
57192;BME280;43052;52.588;13.396;2022-11-02T05:51:57;101408.13;;;7.92;81.67
57192;BME280;43052;52.588;13.396;2022-11-02T05:54:23;101394.06;;;7.82;81.97
57192;BME280;43052;52.588;13.396;2022-11-02T05:56:48;101398.63;;;7.96;81.48
57192;BME280;43052;52.588;13.396;2022-11-02T05:59:13;101394.22;;;7.92;81.74
57192;BME280;43052;52.588;13.396;2022-11-02T06:01:39;101399.56;;;8.03;81.73
57192;BME280;43052;52.588;13.396;2022-11-02T06:04:04;101396.94;;;8.01;81.48
57192;BME280;43052;52.588;13.396;2022-11-02T06:06:30;101389.91;;;7.94;81.34
57192;BME280;43052;52.588;13.396;2022-11-02T06:08:55;101386.38;;;7.90;81.32
57192;BME280;43052;52.588;13.396;2022-11-02T06:11:20;101394.25;;;7.95;81.19
57192;BME280;43052;52.588;13.396;2022-11-02T06:13:48;101402.16;;;7.99;81.20
57192;BME280;43052;52.588;13.396;2022-11-02T06:16:14;101390.03;;;8.03;81.25
57192;BME280;43052;52.588;13.396;2022-11-02T06:18:40;101400.59;;;8.12;81.02
57192;BME280;43052;52.588;13.396;2022-11-02T06:21:05;101419.00;;;8.23;80.84
57192;BME280;43052;52.588;13.396;2022-11-02T06:23:31;101414.75;;;8.30;80.44
57192;BME280;43052;52.588;13.396;2022-11-02T06:25:57;101413.13;;;8.37;80.28
57192;BME280;43052;52.588;13.396;2022-11-02T06:28:24;101388.72;;;8.33;80.33
57192;BME280;43052;52.588;13.396;2022-11-02T06:30:49;101390.06;;;8.66;79.90
57192;BME280;43052;52.588;13.396;2022-11-02T06:33:16;101404.84;;;9.49;79.33
57192;BME280;43052;52.588;13.396;2022-11-02T06:35:50;101402.78;;;10.20;77.95
57192;BME280;43052;52.588;13.396;2022-11-02T06:38:16;101412.56;;;10.46;77.06
57192;BME280;43052;52.588;13.396;2022-11-02T06:40:42;101424.94;;;10.82;76.13
57192;BME280;43052;52.588;13.396;2022-11-02T06:43:08;101412.03;;;11.63;75.03
57192;BME280;43052;52.588;13.396;2022-11-02T06:45:33;101403.13;;;12.71;71.92
57192;BME280;43052;52.588;13.396;2022-11-02T06:47:58;101421.03;;;13.61;69.35
57192;BME280;43052;52.588;13.396;2022-11-02T06:50:24;101421.00;;;14.56;66.60
57192;BME280;43052;52.588;13.396;2022-11-02T06:52:50;101414.75;;;15.32;64.58
57192;BME280;43052;52.588;13.396;2022-11-02T06:55:16;101425.63;;;15.68;62.41
57192;BME280;43052;52.588;13.396;2022-11-02T06:57:42;101425.34;;;15.87;61.57
57192;BME280;43052;52.588;13.396;2022-11-02T07:00:11;101424.34;;;15.36;60.30
57192;BME280;43052;52.588;13.396;2022-11-02T07:02:39;101423.53;;;14.67;62.06
57192;BME280;43052;52.588;13.396;2022-11-02T07:05:05;101421.47;;;14.92;61.63
57192;BME280;43052;52.588;13.396;2022-11-02T07:07:31;101418.91;;;16.02;59.75
57192;BME280;43052;52.588;13.396;2022-11-02T07:09:56;101411.03;;;17.32;57.46
57192;BME280;43052;52.588;13.396;2022-11-02T07:12:21;101422.88;;;18.55;53.16
57192;BME280;43052;52.588;13.396;2022-11-02T07:14:46;101411.78;;;18.42;52.53
57192;BME280;43052;52.588;13.396;2022-11-02T07:17:11;101419.91;;;17.65;53.80
57192;BME280;43052;52.588;13.396;2022-11-02T07:19:37;101414.53;;;16.91;54.22
57192;BME280;43052;52.588;13.396;2022-11-02T07:22:02;101414.56;;;17.68;54.60
57192;BME280;43052;52.588;13.396;2022-11-02T07:24:27;101415.34;;;19.31;51.55
57192;BME280;43052;52.588;13.396;2022-11-02T07:26:52;101409.78;;;20.92;49.31
57192;BME280;43052;52.588;13.396;2022-11-02T07:29:18;101405.91;;;22.09;45.49
57192;BME280;43052;52.588;13.396;2022-11-02T07:31:44;101380.06;;;22.72;40.98
57192;BME280;43052;52.588;13.396;2022-11-02T07:34:10;101407.31;;;23.53;41.15
57192;BME280;43052;52.588;13.396;2022-11-02T07:36:35;101392.25;;;24.38;39.76
57192;BME280;43052;52.588;13.396;2022-11-02T07:39:01;101399.94;;;25.10;37.07
57192;BME280;43052;52.588;13.396;2022-11-02T07:41:27;101398.59;;;25.80;34.78
57192;BME280;43052;52.588;13.396;2022-11-02T07:43:52;101402.63;;;26.32;32.44
57192;BME280;43052;52.588;13.396;2022-11-02T07:46:17;101417.78;;;26.62;32.92
57192;BME280;43052;52.588;13.396;2022-11-02T07:48:43;101414.88;;;27.21;31.94
57192;BME280;43052;52.588;13.396;2022-11-02T07:51:08;101411.16;;;27.51;31.37
57192;BME280;43052;52.588;13.396;2022-11-02T07:53:35;101419.41;;;28.02;30.62
57192;BME280;43052;52.588;13.396;2022-11-02T07:56:01;101398.88;;;26.93;31.32
57192;BME280;43052;52.588;13.396;2022-11-02T07:58:27;101406.50;;;25.21;33.76
57192;BME280;43052;52.588;13.396;2022-11-02T08:00:52;101422.91;;;23.43;36.71
57192;BME280;43052;52.588;13.396;2022-11-02T08:03:19;101424.28;;;22.57;38.18
57192;BME280;43052;52.588;13.396;2022-11-02T08:05:44;101410.03;;;21.53;38.44
57192;BME280;43052;52.588;13.396;2022-11-02T08:08:21;101423.44;;;20.34;40.50
57192;BME280;43052;52.588;13.396;2022-11-02T08:10:48;101429.53;;;19.30;42.83
57192;BME280;43052;52.588;13.396;2022-11-02T08:13:19;101433.69;;;18.47;45.00
57192;BME280;43052;52.588;13.396;2022-11-02T08:15:49;101422.44;;;18.06;45.39
57192;BME280;43052;52.588;13.396;2022-11-02T08:18:16;101428.81;;;17.63;46.54
57192;BME280;43052;52.588;13.396;2022-11-02T08:20:42;101432.44;;;17.19;47.45
57192;BME280;43052;52.588;13.396;2022-11-02T08:23:10;101429.81;;;16.77;48.16
57192;BME280;43052;52.588;13.396;2022-11-02T08:25:36;101425.81;;;16.57;49.20
57192;BME280;43052;52.588;13.396;2022-11-02T08:28:02;101435.06;;;16.79;49.21
57192;BME280;43052;52.588;13.396;2022-11-02T08:30:29;101433.50;;;16.68;49.50
57192;BME280;43052;52.588;13.396;2022-11-02T08:33:01;101436.78;;;16.36;50.06
57192;BME280;43052;52.588;13.396;2022-11-02T08:35:26;101426.91;;;15.98;50.85
57192;BME280;43052;52.588;13.396;2022-11-02T08:37:55;101420.44;;;15.63;51.65
57192;BME280;43052;52.588;13.396;2022-11-02T08:40:20;101423.28;;;15.49;52.09
57192;BME280;43052;52.588;13.396;2022-11-02T08:42:46;101428.75;;;15.34;52.85
57192;BME280;43052;52.588;13.396;2022-11-02T08:45:11;101439.44;;;15.26;53.44
57192;BME280;43052;52.588;13.396;2022-11-02T08:47:40;101436.91;;;15.18;54.04
57192;BME280;43052;52.588;13.396;2022-11-02T08:50:08;101437.66;;;15.86;53.85
57192;BME280;43052;52.588;13.396;2022-11-02T08:52:35;101441.69;;;17.00;51.76
57192;BME280;43052;52.588;13.396;2022-11-02T08:55:00;101432.78;;;18.15;49.46
57192;BME280;43052;52.588;13.396;2022-11-02T08:57:25;101429.31;;;18.13;48.10
57192;BME280;43052;52.588;13.396;2022-11-02T08:59:51;101436.44;;;18.43;48.52
57192;BME280;43052;52.588;13.396;2022-11-02T09:02:16;101416.63;;;21.66;43.39
57192;BME280;43052;52.588;13.396;2022-11-02T09:04:41;101415.34;;;24.23;37.97
57192;BME280;43052;52.588;13.396;2022-11-02T09:07:06;101410.88;;;26.58;34.60
57192;BME280;43052;52.588;13.396;2022-11-02T09:09:32;101417.72;;;28.26;31.02
57192;BME280;43052;52.588;13.396;2022-11-02T09:11:57;101418.00;;;29.59;29.66
57192;BME280;43052;52.588;13.396;2022-11-02T09:14:22;101412.78;;;30.84;27.89
57192;BME280;43052;52.588;13.396;2022-11-02T09:16:47;101419.28;;;31.37;26.35
57192;BME280;43052;52.588;13.396;2022-11-02T09:19:13;101423.03;;;32.21;26.03
57192;BME280;43052;52.588;13.396;2022-11-02T09:21:38;101414.59;;;33.36;24.10
57192;BME280;43052;52.588;13.396;2022-11-02T09:24:03;101421.19;;;34.11;23.34
57192;BME280;43052;52.588;13.396;2022-11-02T09:26:29;101419.59;;;34.83;21.35
57192;BME280;43052;52.588;13.396;2022-11-02T09:28:54;101419.69;;;35.38;21.25
57192;BME280;43052;52.588;13.396;2022-11-02T09:31:19;101421.56;;;35.55;20.48
57192;BME280;43052;52.588;13.396;2022-11-02T09:33:44;101420.16;;;35.51;20.37
57192;BME280;43052;52.588;13.396;2022-11-02T09:36:10;101417.25;;;35.35;20.34
57192;BME280;43052;52.588;13.396;2022-11-02T09:38:35;101421.78;;;35.44;20.05
57192;BME280;43052;52.588;13.396;2022-11-02T09:41:21;101424.50;;;35.44;19.97
57192;BME280;43052;52.588;13.396;2022-11-02T09:43:59;101423.50;;;35.45;19.63
57192;BME280;43052;52.588;13.396;2022-11-02T09:46:30;101433.09;;;35.57;19.67
57192;BME280;43052;52.588;13.396;2022-11-02T09:49:03;101432.03;;;35.68;19.65
57192;BME280;43052;52.588;13.396;2022-11-02T09:51:35;101425.88;;;35.66;19.25
57192;BME280;43052;52.588;13.396;2022-11-02T09:54:32;101429.53;;;35.57;19.28
57192;BME280;43052;52.588;13.396;2022-11-02T09:57:10;101418.16;;;35.98;18.95
57192;BME280;43052;52.588;13.396;2022-11-02T09:59:39;101435.31;;;36.25;18.71
57192;BME280;43052;52.588;13.396;2022-11-02T10:02:20;101427.00;;;36.34;18.60
57192;BME280;43052;52.588;13.396;2022-11-02T10:07:57;101427.66;;;36.28;18.18
57192;BME280;43052;52.588;13.396;2022-11-02T10:10:50;101422.22;;;36.28;18.21
57192;BME280;43052;52.588;13.396;2022-11-02T10:13:27;101427.53;;;36.03;18.11
57192;BME280;43052;52.588;13.396;2022-11-02T10:16:13;101428.38;;;36.04;18.50
57192;BME280;43052;52.588;13.396;2022-11-02T10:18:40;101436.31;;;35.97;18.16
57192;BME280;43052;52.588;13.396;2022-11-02T10:21:11;101429.19;;;35.78;18.05
57192;BME280;43052;52.588;13.396;2022-11-02T10:23:40;101425.00;;;34.65;19.12
57192;BME280;43052;52.588;13.396;2022-11-02T10:26:17;101439.75;;;34.15;20.09
57192;BME280;43052;52.588;13.396;2022-11-02T10:28:46;101436.59;;;34.58;20.04
57192;BME280;43052;52.588;13.396;2022-11-02T10:31:25;101427.53;;;34.77;19.53
57192;BME280;43052;52.588;13.396;2022-11-02T10:33:52;101426.06;;;34.07;20.08
57192;BME280;43052;52.588;13.396;2022-11-02T10:36:32;101423.47;;;32.47;21.38
57192;BME280;43052;52.588;13.396;2022-11-02T10:39:08;101435.25;;;30.73;23.18
57192;BME280;43052;52.588;13.396;2022-11-02T10:48:01;101440.75;;;22.85;33.26
57192;BME280;43052;52.588;13.396;2022-11-02T10:50:45;101442.69;;;21.58;35.28
57192;BME280;43052;52.588;13.396;2022-11-02T10:53:16;101445.09;;;20.96;36.53
57192;BME280;43052;52.588;13.396;2022-11-02T10:56:16;101444.06;;;20.51;37.58
57192;BME280;43052;52.588;13.396;2022-11-02T10:58:48;101448.25;;;20.08;38.41
57192;BME280;43052;52.588;13.396;2022-11-02T11:01:15;101441.97;;;19.83;39.38
57192;BME280;43052;52.588;13.396;2022-11-02T11:06:18;101447.16;;;19.31;40.51
57192;BME280;43052;52.588;13.396;2022-11-02T11:08:45;101443.91;;;19.23;40.37
57192;BME280;43052;52.588;13.396;2022-11-02T11:11:20;101463.91;;;19.03;41.14
57192;BME280;43052;52.588;13.396;2022-11-02T11:14:04;101449.97;;;18.65;41.62
57192;BME280;43052;52.588;13.396;2022-11-02T11:16:42;101465.19;;;18.58;42.26
57192;BME280;43052;52.588;13.396;2022-11-02T11:21:59;101470.59;;;18.54;42.50
57192;BME280;43052;52.588;13.396;2022-11-02T11:24:27;101466.09;;;18.24;42.91
57192;BME280;43052;52.588;13.396;2022-11-02T11:29:39;101472.97;;;17.97;43.62
57192;BME280;43052;52.588;13.396;2022-11-02T11:32:13;101463.53;;;17.85;43.88
57192;BME280;43052;52.588;13.396;2022-11-02T11:34:39;101468.06;;;17.80;44.07
57192;BME280;43052;52.588;13.396;2022-11-02T11:37:09;101465.88;;;17.61;44.99
57192;BME280;43052;52.588;13.396;2022-11-02T11:39:38;101480.09;;;17.56;45.19
57192;BME280;43052;52.588;13.396;2022-11-02T11:42:14;101469.38;;;17.62;45.21
57192;BME280;43052;52.588;13.396;2022-11-02T11:44:50;101474.25;;;17.79;45.13
57192;BME280;43052;52.588;13.396;2022-11-02T11:47:23;101471.78;;;17.71;45.31
57192;BME280;43052;52.588;13.396;2022-11-02T11:49:49;101460.91;;;17.47;45.75
57192;BME280;43052;52.588;13.396;2022-11-02T11:52:19;101471.00;;;17.30;45.87
57192;BME280;43052;52.588;13.396;2022-11-02T11:54:53;101475.63;;;17.18;46.28
57192;BME280;43052;52.588;13.396;2022-11-02T11:57:25;101469.78;;;17.04;46.76
57192;BME280;43052;52.588;13.396;2022-11-02T11:59:52;101450.03;;;16.78;47.28
57192;BME280;43052;52.588;13.396;2022-11-02T12:02:26;101463.06;;;16.86;47.44
57192;BME280;43052;52.588;13.396;2022-11-02T12:05:11;101464.69;;;16.95;47.31
57192;BME280;43052;52.588;13.396;2022-11-02T12:07:44;101458.19;;;17.11;46.80
57192;BME280;43052;52.588;13.396;2022-11-02T12:11:07;101461.38;;;17.27;46.64
57192;BME280;43052;52.588;13.396;2022-11-02T12:13:47;101455.75;;;17.41;45.97
57192;BME280;43052;52.588;13.396;2022-11-02T12:19:17;101445.78;;;17.52;45.23
57192;BME280;43052;52.588;13.396;2022-11-02T12:21:53;101452.19;;;17.42;45.59
57192;BME280;43052;52.588;13.396;2022-11-02T12:24:58;101457.53;;;17.41;45.77
57192;BME280;43052;52.588;13.396;2022-11-02T12:27:40;101454.78;;;17.45;45.93
57192;BME280;43052;52.588;13.396;2022-11-02T12:30:18;101464.50;;;17.45;45.67
57192;BME280;43052;52.588;13.396;2022-11-02T12:33:17;101457.78;;;17.30;46.05
57192;BME280;43052;52.588;13.396;2022-11-02T12:35:52;101467.75;;;17.15;46.06
57192;BME280;43052;52.588;13.396;2022-11-02T12:38:44;101456.69;;;16.99;47.06
57192;BME280;43052;52.588;13.396;2022-11-02T12:44:01;101455.19;;;16.84;47.76
57192;BME280;43052;52.588;13.396;2022-11-02T12:46:48;101450.72;;;16.88;47.30
57192;BME280;43052;52.588;13.396;2022-11-02T12:49:38;101456.28;;;16.74;47.14
57192;BME280;43052;52.588;13.396;2022-11-02T12:52:21;101460.94;;;16.61;46.89
57192;BME280;43052;52.588;13.396;2022-11-02T12:54:52;101449.56;;;16.57;47.25
57192;BME280;43052;52.588;13.396;2022-11-02T12:57:21;101457.44;;;16.60;46.70
57192;BME280;43052;52.588;13.396;2022-11-02T12:59:52;101449.53;;;16.59;45.64
57192;BME280;43052;52.588;13.396;2022-11-02T13:02:46;101464.59;;;16.54;44.63
57192;BME280;43052;52.588;13.396;2022-11-02T13:05:28;101462.09;;;16.46;43.97
57192;BME280;43052;52.588;13.396;2022-11-02T13:08:14;101453.66;;;16.27;44.17
57192;BME280;43052;52.588;13.396;2022-11-02T13:10:50;101459.31;;;16.05;43.78
57192;BME280;43052;52.588;13.396;2022-11-02T13:13:44;101449.91;;;15.90;44.14
57192;BME280;43052;52.588;13.396;2022-11-02T13:16:08;101455.28;;;15.82;44.58
57192;BME280;43052;52.588;13.396;2022-11-02T13:18:43;101467.84;;;15.65;44.27
57192;BME280;43052;52.588;13.396;2022-11-02T13:21:10;101474.91;;;15.64;44.17
57192;BME280;43052;52.588;13.396;2022-11-02T13:23:39;101451.31;;;15.55;43.84
57192;BME280;43052;52.588;13.396;2022-11-02T13:26:11;101473.94;;;15.69;43.44
57192;BME280;43052;52.588;13.396;2022-11-02T13:28:51;101447.66;;;15.64;43.18
57192;BME280;43052;52.588;13.396;2022-11-02T13:31:29;101472.88;;;15.80;43.20